createdAt,value
2023-03-13T00:01:17.521Z,92.49
2023-03-13T00:03:47.019Z,92.38
2023-03-13T00:06:15.549Z,92.34
2023-03-13T00:08:44.686Z,92.25
2023-03-13T00:11:14.410Z,92.24
2023-03-13T00:13:42.879Z,92.24
2023-03-13T00:16:12.925Z,91.94
2023-03-13T00:18:45.357Z,92.26
2023-03-13T00:21:14.859Z,91.93
2023-03-13T00:23:42.932Z,91.75
2023-03-13T00:26:12.325Z,91.76
2023-03-13T00:28:41.365Z,91.54
2023-03-13T00:31:10.752Z,91.71
2023-03-13T00:33:40.590Z,91.49
2023-03-13T00:36:10.202Z,91.51
2023-03-13T00:38:40.073Z,91.55
2023-03-13T00:41:09.388Z,91.78
2023-03-13T00:43:37.428Z,91.71
2023-03-13T00:46:05.935Z,91.47
2023-03-13T00:48:34.247Z,91.74
2023-03-13T00:51:02.574Z,91.86
2023-03-13T00:53:31.089Z,91.53
2023-03-13T00:56:02.228Z,91.72
2023-03-13T00:58:32.550Z,91.83
2023-03-13T01:01:07.937Z,91.77
2023-03-13T01:03:36.692Z,91.86
2023-03-13T01:06:06.997Z,91.91
2023-03-13T01:08:35.408Z,91.79
2023-03-13T01:11:07.021Z,91.73
2023-03-13T01:13:35.772Z,92.00
2023-03-13T01:16:05.879Z,91.88
2023-03-13T01:18:34.848Z,92.01
2023-03-13T01:21:03.070Z,91.83
2023-03-13T01:23:31.349Z,92.05
2023-03-13T01:25:59.885Z,91.97
2023-03-13T01:28:29.295Z,91.96
2023-03-13T01:30:57.408Z,92.05
2023-03-13T01:33:25.496Z,92.16
2023-03-13T01:35:53.701Z,91.90
2023-03-13T01:38:21.788Z,92.17
2023-03-13T01:40:50.485Z,92.16
2023-03-13T01:43:28.187Z,92.20
2023-03-13T01:46:14.783Z,92.27
2023-03-13T01:48:46.031Z,92.28
2023-03-13T01:51:19.264Z,92.27
2023-03-13T01:53:50.093Z,92.28
2023-03-13T01:56:21.611Z,92.49
2023-03-13T01:58:50.948Z,92.46
2023-03-13T02:01:21.110Z,92.29
2023-03-13T02:03:50.293Z,92.47
2023-03-13T02:06:18.848Z,92.45
2023-03-13T02:08:50.244Z,92.42
2023-03-13T02:11:25.372Z,92.36
2023-03-13T02:13:54.787Z,92.62
2023-03-13T02:16:24.458Z,92.65
2023-03-13T02:18:52.555Z,92.52
2023-03-13T02:21:33.238Z,92.52
2023-03-13T02:24:08.965Z,92.70
2023-03-13T02:26:38.401Z,92.66
2023-03-13T02:29:06.478Z,93.09
2023-03-13T02:31:34.693Z,93.51
2023-03-13T02:34:03.525Z,93.95
2023-03-13T02:36:32.088Z,94.08
2023-03-13T02:39:04.262Z,94.52
2023-03-13T02:41:33.500Z,94.74
2023-03-13T02:44:02.911Z,95.01
2023-03-13T02:46:32.446Z,95.39
2023-03-13T02:49:00.623Z,95.62
2023-03-13T02:51:30.991Z,95.79
2023-03-13T02:54:01.898Z,96.05
2023-03-13T02:56:32.465Z,96.18
2023-03-13T02:59:01.911Z,96.30
2023-03-13T03:01:29.986Z,96.40
2023-03-13T03:03:58.117Z,96.42
2023-03-13T03:06:26.567Z,96.55
2023-03-13T03:08:54.698Z,96.90
2023-03-13T03:11:22.793Z,97.05
2023-03-13T03:13:50.838Z,96.88
2023-03-13T03:16:20.725Z,97.09
2023-03-13T03:18:49.263Z,97.04
2023-03-13T03:21:17.331Z,97.12
2023-03-13T03:23:45.380Z,96.95
2023-03-13T03:26:13.485Z,96.78
2023-03-13T03:28:41.535Z,97.14
2023-03-13T03:31:10.979Z,97.16
2023-03-13T03:33:40.648Z,97.06
2023-03-13T03:36:11.002Z,97.03
2023-03-13T03:38:42.464Z,97.15
2023-03-13T03:41:12.296Z,97.12
2023-03-13T03:43:40.548Z,97.38
2023-03-13T03:46:08.892Z,97.30
2023-03-13T03:48:37.588Z,97.34
2023-03-13T03:51:07.981Z,97.29
2023-03-13T03:53:36.018Z,97.28
2023-03-13T03:56:04.360Z,97.16
2023-03-13T03:58:32.442Z,97.21
2023-03-13T04:01:00.784Z,97.35
2023-03-13T04:03:28.959Z,97.25
2023-03-13T04:05:57.130Z,97.26
2023-03-13T04:08:26.754Z,97.17
2023-03-13T04:10:54.860Z,97.04
2023-03-13T04:13:22.888Z,97.23
2023-03-13T04:15:50.957Z,97.17
2023-03-13T04:18:19.028Z,97.43
2023-03-13T04:20:47.130Z,97.26
2023-03-13T04:23:15.198Z,97.33
2023-03-13T04:25:44.635Z,97.34
2023-03-13T04:28:12.663Z,97.41
2023-03-13T04:30:40.783Z,97.50
2023-03-13T04:33:08.951Z,97.47
2023-03-13T04:35:37.114Z,97.67
2023-03-13T04:38:05.351Z,97.53
2023-03-13T04:40:33.545Z,97.83
2023-03-13T04:43:02.972Z,97.59
2023-03-13T04:45:31.023Z,97.80
2023-03-13T04:47:59.098Z,97.75
2023-03-13T04:50:27.187Z,97.71
2023-03-13T04:52:55.260Z,97.72
2023-03-13T04:55:23.401Z,97.87
2023-03-13T04:57:51.450Z,97.90
2023-03-13T05:00:21.616Z,97.89
2023-03-13T05:02:49.678Z,98.03
2023-03-13T05:05:17.899Z,98.28
2023-03-13T05:07:45.970Z,98.36
2023-03-13T05:10:14.061Z,98.32
2023-03-13T05:12:42.140Z,98.53
2023-03-13T05:15:10.788Z,98.26
2023-03-13T05:17:40.227Z,98.32
2023-03-13T05:20:11.266Z,98.60
2023-03-13T05:22:39.557Z,98.63
2023-03-13T05:25:08.137Z,98.61
2023-03-13T05:27:36.219Z,98.55
2023-03-13T05:30:04.594Z,98.31
2023-03-13T05:32:32.726Z,98.68
2023-03-13T05:35:02.205Z,98.64
2023-03-13T05:37:30.384Z,98.44
2023-03-13T05:39:58.521Z,98.65
2023-03-13T05:42:26.959Z,98.66
2023-03-13T05:44:55.040Z,98.81
2023-03-13T05:47:23.128Z,99.00
2023-03-13T05:49:51.247Z,99.07
2023-03-13T05:52:20.673Z,98.92
2023-03-13T05:54:48.777Z,99.13
2023-03-13T05:57:16.892Z,99.28
2023-03-13T05:59:45.007Z,99.39
2023-03-13T06:02:13.081Z,99.50
2023-03-13T06:04:41.577Z,99.55
2023-03-13T06:07:09.818Z,99.74
2023-03-13T06:09:40.926Z,99.96
2023-03-13T06:12:09.889Z,100.00
2023-03-13T06:14:38.337Z,100.00
2023-03-13T06:17:07.146Z,99.96
2023-03-13T06:19:35.197Z,99.90
2023-03-13T06:22:03.306Z,99.97
2023-03-13T06:24:31.554Z,99.93
2023-03-13T06:27:01.010Z,99.99
2023-03-13T06:29:29.067Z,99.95
2023-03-13T06:31:57.506Z,99.99
2023-03-13T06:34:25.686Z,99.70
2023-03-13T06:36:53.750Z,99.82
2023-03-13T06:39:21.790Z,99.83
2023-03-13T06:41:49.869Z,99.88
2023-03-13T06:44:19.320Z,99.89
2023-03-13T06:46:47.467Z,99.87
2023-03-13T06:49:15.542Z,99.83
2023-03-13T06:51:43.630Z,99.88
2023-03-13T06:54:11.776Z,99.90
2023-03-13T06:56:39.905Z,99.82
2023-03-13T06:59:07.996Z,100.00
2023-03-13T07:01:37.420Z,100.00
2023-03-13T07:04:05.551Z,100.00
2023-03-13T07:06:33.752Z,100.00
2023-03-13T07:09:01.869Z,100.00
2023-03-13T07:11:29.937Z,100.00
2023-03-13T07:14:15.291Z,100.00
2023-03-13T07:16:46.043Z,100.00
2023-03-13T07:19:14.362Z,100.00
2023-03-13T07:21:42.693Z,100.00
2023-03-13T07:24:10.946Z,100.00
2023-03-13T07:26:40.300Z,100.00
2023-03-13T07:29:10.386Z,100.00
2023-03-13T07:31:39.379Z,100.00
2023-03-13T07:34:08.820Z,100.00
2023-03-13T07:36:36.911Z,100.00
2023-03-13T07:39:05.076Z,100.00
2023-03-13T07:41:33.189Z,100.00
2023-03-13T07:44:01.269Z,100.00
2023-03-13T07:46:29.398Z,100.00
2023-03-13T07:48:57.604Z,100.00
2023-03-13T07:51:40.772Z,100.00
2023-03-13T07:54:11.751Z,100.00
2023-03-13T07:56:40.173Z,100.00
2023-03-13T07:59:08.307Z,100.00
2023-03-13T08:01:36.689Z,100.00
2023-03-13T08:04:05.577Z,100.00
2023-03-13T08:06:36.810Z,100.00
2023-03-13T08:09:05.510Z,100.00
2023-03-13T08:11:33.679Z,100.00
2023-03-13T08:14:01.761Z,100.00
2023-03-13T08:16:31.359Z,100.00
2023-03-13T08:19:00.051Z,100.00
2023-03-13T08:21:29.655Z,100.00
2023-03-13T08:24:01.212Z,100.00
2023-03-13T08:26:30.933Z,100.00
2023-03-13T08:29:00.098Z,100.00
2023-03-13T08:31:30.288Z,100.00
2023-03-13T08:33:59.312Z,100.00
2023-03-13T08:36:29.363Z,100.00
2023-03-13T08:39:01.565Z,100.00
2023-03-13T08:41:31.415Z,100.00
2023-03-13T08:43:59.605Z,100.00
2023-03-13T08:46:30.084Z,100.00
2023-03-13T08:48:58.244Z,100.00
2023-03-13T08:51:27.761Z,100.00
2023-03-13T08:53:56.979Z,100.00
2023-03-13T08:56:30.375Z,100.00
2023-03-13T08:59:00.284Z,100.00
2023-03-13T09:01:30.116Z,100.00
2023-03-13T09:03:59.169Z,100.00
2023-03-13T09:06:28.138Z,100.00
2023-03-13T09:08:57.898Z,100.00
2023-03-13T09:11:27.714Z,100.00
2023-03-13T09:13:59.186Z,100.00
2023-03-13T09:16:28.726Z,100.00
2023-03-13T09:18:57.453Z,100.00
2023-03-13T09:21:27.265Z,100.00
2023-03-13T09:23:55.629Z,100.00
2023-03-13T09:26:24.419Z,100.00
2023-03-13T09:28:54.338Z,100.00
2023-03-13T09:31:27.108Z,100.00
2023-03-13T09:33:55.822Z,100.00
2023-03-13T09:36:24.825Z,100.00
2023-03-13T09:38:53.650Z,100.00
2023-03-13T09:41:25.984Z,100.00
2023-03-13T09:44:01.506Z,100.00
2023-03-13T09:46:35.017Z,100.00
2023-03-13T09:49:06.265Z,100.00
2023-03-13T09:51:37.273Z,100.00
2023-03-13T09:54:08.713Z,100.00
2023-03-13T09:56:41.877Z,100.00
2023-03-13T09:59:18.812Z,100.00
2023-03-13T10:01:48.602Z,100.00
2023-03-13T10:04:28.910Z,100.00
2023-03-13T10:06:58.056Z,100.00
2023-03-13T10:09:30.502Z,100.00
2023-03-13T10:12:05.347Z,100.00
2023-03-13T10:14:41.019Z,100.00
2023-03-13T10:17:14.860Z,100.00
2023-03-13T10:19:44.431Z,100.00
2023-03-13T10:22:16.225Z,100.00
2023-03-13T10:24:51.430Z,100.00
2023-03-13T10:27:19.524Z,100.00
2023-03-13T10:29:48.991Z,100.00
2023-03-13T10:32:20.035Z,100.00
2023-03-13T10:34:53.707Z,100.00
2023-03-13T10:37:24.571Z,100.00
2023-03-13T10:39:53.225Z,100.00
2023-03-13T10:42:29.411Z,99.37
2023-03-13T10:45:00.340Z,98.35
2023-03-13T10:47:28.921Z,97.78
2023-03-13T10:49:58.749Z,97.05
2023-03-13T10:52:36.930Z,96.67
2023-03-13T10:55:07.101Z,95.70
2023-03-13T10:57:36.449Z,94.39
2023-03-13T11:00:24.481Z,93.55
2023-03-13T11:02:53.933Z,93.46
2023-03-13T11:05:32.797Z,92.58
2023-03-13T11:08:11.987Z,92.22
2023-03-13T11:10:51.738Z,91.66
2023-03-13T11:13:37.652Z,90.86
2023-03-13T11:16:29.576Z,89.80
2023-03-13T11:19:18.212Z,89.10
2023-03-13T11:21:57.593Z,88.76
2023-03-13T11:24:29.796Z,87.58
2023-03-13T11:27:05.007Z,86.15
2023-03-13T11:29:39.482Z,84.90
2023-03-13T11:32:19.644Z,83.73
2023-03-13T11:34:51.836Z,82.91
2023-03-13T11:37:20.487Z,81.88
2023-03-13T11:40:06.736Z,80.49
2023-03-13T11:42:49.980Z,78.93
2023-03-13T11:45:31.859Z,79.00
2023-03-13T11:48:07.520Z,78.86
2023-03-13T11:50:41.336Z,78.36
2023-03-13T11:53:20.422Z,77.60
2023-03-13T11:55:58.180Z,77.51
2023-03-13T11:58:52.774Z,76.80
2023-03-13T12:01:23.782Z,76.24
2023-03-13T12:03:58.571Z,75.19
2023-03-13T12:06:31.870Z,74.16
2023-03-13T12:09:05.114Z,73.19
2023-03-13T12:11:38.060Z,71.32
2023-03-13T12:14:11.398Z,69.38
2023-03-13T12:16:43.121Z,68.03
2023-03-13T12:19:18.402Z,68.02
2023-03-13T12:21:49.848Z,67.06
2023-03-13T12:24:24.072Z,66.59
2023-03-13T12:26:55.904Z,65.99
2023-03-13T12:29:35.497Z,66.26
2023-03-13T12:32:10.339Z,66.58
2023-03-13T12:34:46.622Z,66.31
2023-03-13T12:37:21.636Z,66.72
2023-03-13T12:39:52.151Z,66.59
2023-03-13T12:42:38.748Z,67.06
2023-03-13T12:45:08.884Z,67.42
2023-03-13T12:47:48.159Z,67.11
2023-03-13T12:50:35.775Z,67.25
2023-03-13T12:53:21.480Z,67.14
2023-03-13T12:56:08.324Z,67.31
2023-03-13T12:58:42.199Z,66.43
2023-03-13T13:01:16.117Z,66.58
2023-03-13T13:03:51.915Z,66.54
2023-03-13T13:06:21.665Z,65.74
2023-03-13T13:09:03.147Z,65.42
2023-03-13T13:11:53.520Z,64.87
2023-03-13T13:15:05.825Z,64.72
2023-03-13T13:18:01.584Z,64.02
2023-03-13T13:20:42.151Z,63.72
2023-03-13T13:23:37.578Z,63.49
2023-03-13T13:26:47.385Z,62.63
2023-03-13T13:29:58.074Z,62.71
2023-03-13T13:32:38.085Z,62.12
2023-03-13T13:35:19.633Z,61.32
2023-03-13T13:37:49.545Z,60.92
2023-03-13T13:40:25.226Z,59.66
2023-03-13T13:42:55.116Z,58.93
2023-03-13T13:45:31.249Z,59.06
2023-03-13T13:48:30.246Z,59.69
2023-03-13T13:51:25.401Z,58.97
2023-03-13T13:53:56.048Z,59.03
2023-03-13T13:56:42.182Z,59.51
2023-03-13T13:59:42.258Z,60.50
2023-03-13T14:02:27.357Z,61.21
2023-03-13T14:05:01.056Z,61.62
2023-03-13T14:07:33.256Z,62.04
2023-03-13T14:10:05.462Z,62.72
2023-03-13T14:12:36.397Z,62.99
2023-03-13T14:15:09.871Z,64.03
2023-03-13T14:17:42.715Z,64.10
2023-03-13T14:20:35.185Z,63.54
2023-03-13T14:23:06.188Z,63.71
2023-03-13T14:25:47.958Z,63.69
2023-03-13T14:28:25.139Z,64.16
2023-03-13T14:30:54.446Z,64.00
2023-03-13T14:33:22.615Z,64.20
2023-03-13T14:35:51.183Z,64.69
2023-03-13T14:38:21.517Z,64.47
2023-03-13T14:40:50.367Z,64.37
2023-03-13T14:43:22.746Z,64.31
2023-03-13T14:45:52.330Z,64.69
2023-03-13T14:48:24.683Z,64.70
2023-03-13T14:51:05.406Z,64.42
2023-03-13T14:53:42.189Z,64.67
2023-03-13T14:56:19.131Z,64.37
2023-03-13T14:58:48.647Z,64.38
2023-03-13T15:01:26.457Z,64.28
2023-03-13T15:03:54.723Z,63.69
2023-03-13T15:06:24.522Z,63.40
2023-03-13T15:09:20.831Z,63.61
2023-03-13T15:11:59.888Z,63.33
2023-03-13T15:14:37.647Z,62.34
2023-03-13T15:17:12.514Z,61.72
2023-03-13T15:19:40.669Z,61.83
2023-03-13T15:22:15.190Z,62.12
2023-03-13T15:24:48.439Z,62.28
2023-03-13T15:27:23.423Z,62.36
2023-03-13T15:29:51.762Z,62.53
2023-03-13T15:32:27.764Z,62.86
2023-03-13T15:34:58.656Z,62.96
2023-03-13T15:37:27.402Z,62.57
2023-03-13T15:39:56.572Z,61.87
2023-03-13T15:42:25.526Z,61.76
2023-03-13T15:44:53.659Z,61.50
2023-03-13T15:47:23.479Z,61.71
2023-03-13T15:49:51.564Z,61.55
2023-03-13T15:52:22.603Z,61.77
2023-03-13T15:54:52.059Z,61.00
2023-03-13T15:57:23.172Z,61.28
2023-03-13T15:59:51.772Z,60.71
2023-03-13T16:02:21.525Z,60.25
2023-03-13T16:04:51.617Z,60.18
2023-03-13T16:07:21.266Z,60.69
2023-03-13T16:09:49.962Z,60.53
2023-03-13T16:12:18.098Z,60.29
2023-03-13T16:14:46.208Z,59.89
2023-03-13T16:17:16.417Z,60.50
2023-03-13T16:19:44.931Z,59.94
2023-03-13T16:22:14.701Z,59.80
2023-03-13T16:24:42.882Z,59.95
2023-03-13T16:27:15.757Z,59.99
2023-03-13T16:29:44.721Z,59.97
2023-03-13T16:32:14.215Z,60.37
2023-03-13T16:34:43.098Z,60.24
2023-03-13T16:37:14.914Z,60.41
2023-03-13T16:39:43.499Z,60.43
2023-03-13T16:42:11.691Z,60.12
2023-03-13T16:44:39.945Z,60.09
2023-03-13T16:47:17.179Z,60.72
2023-03-13T16:49:47.469Z,60.22
2023-03-13T16:52:17.782Z,60.05
2023-03-13T16:54:46.234Z,60.07
2023-03-13T16:57:16.186Z,59.61
2023-03-13T16:59:44.367Z,59.23
2023-03-13T17:02:15.574Z,58.57
2023-03-13T17:04:44.872Z,57.85
2023-03-13T17:07:19.122Z,57.83
2023-03-13T17:09:47.589Z,57.60
2023-03-13T17:12:15.930Z,57.59
2023-03-13T17:14:44.333Z,57.47
2023-03-13T17:17:13.661Z,57.23
2023-03-13T17:19:41.714Z,56.94
2023-03-13T17:22:12.746Z,56.83
2023-03-13T17:24:42.476Z,56.41
2023-03-13T17:27:13.308Z,56.02
2023-03-13T17:29:41.565Z,55.78
2023-03-13T17:32:11.298Z,55.42
2023-03-13T17:34:39.474Z,55.52
2023-03-13T17:37:14.896Z,55.40
2023-03-13T17:39:44.701Z,55.51
2023-03-13T17:42:13.176Z,55.85
2023-03-13T17:44:42.174Z,55.86
2023-03-13T17:47:14.983Z,56.25
2023-03-13T17:49:43.399Z,56.45
2023-03-13T17:52:15.229Z,56.35
2023-03-13T17:54:45.490Z,57.06
2023-03-13T17:57:18.404Z,57.04
2023-03-13T17:59:47.102Z,57.43
2023-03-13T18:02:16.839Z,57.74
2023-03-13T18:04:45.199Z,58.11
2023-03-13T18:07:22.326Z,58.06
2023-03-13T18:09:51.838Z,57.91
2023-03-13T18:12:20.187Z,57.98
2023-03-13T18:14:48.515Z,58.24
2023-03-13T18:17:18.399Z,58.16
2023-03-13T18:19:46.806Z,57.65
2023-03-13T18:22:16.019Z,57.66
2023-03-13T18:24:44.522Z,57.86
2023-03-13T18:27:16.087Z,57.54
2023-03-13T18:29:44.627Z,58.00
2023-03-13T18:32:14.697Z,57.60
2023-03-13T18:34:43.119Z,57.94
2023-03-13T18:37:21.763Z,57.80
2023-03-13T18:39:51.223Z,58.24
2023-03-13T18:42:20.707Z,58.85
2023-03-13T18:44:48.903Z,58.40
2023-03-13T18:47:18.377Z,58.48
2023-03-13T18:49:47.116Z,58.66
2023-03-13T18:52:15.462Z,58.55
2023-03-13T18:54:44.414Z,58.91
2023-03-13T18:57:17.436Z,58.90
2023-03-13T18:59:47.106Z,59.47
2023-03-13T19:02:16.185Z,58.92
2023-03-13T19:04:44.712Z,59.12
2023-03-13T19:07:14.980Z,59.35
2023-03-13T19:09:44.733Z,59.06
2023-03-13T19:12:15.492Z,59.40
2023-03-13T19:14:44.009Z,59.12
2023-03-13T19:17:17.976Z,59.51
2023-03-13T19:19:46.280Z,59.62
2023-03-13T19:22:15.123Z,59.53
2023-03-13T19:24:43.192Z,59.44
2023-03-13T19:27:13.207Z,59.78
2023-03-13T19:29:41.475Z,59.90
2023-03-13T19:32:15.178Z,59.99
2023-03-13T19:34:43.695Z,59.80
2023-03-13T19:37:12.563Z,60.09
2023-03-13T19:39:41.590Z,60.19
2023-03-13T19:42:10.134Z,60.09
2023-03-13T19:44:38.320Z,60.21
2023-03-13T19:47:06.491Z,60.58
2023-03-13T19:49:35.900Z,60.53
2023-03-13T19:52:04.156Z,60.64
2023-03-13T19:54:32.191Z,60.79
2023-03-13T19:57:00.329Z,60.90
2023-03-13T19:59:28.444Z,60.88
2023-03-13T20:01:56.859Z,61.17
2023-03-13T20:04:25.147Z,61.21
2023-03-13T20:06:54.697Z,60.98
2023-03-13T20:09:23.270Z,61.18
2023-03-13T20:11:51.342Z,61.53
2023-03-13T20:14:19.484Z,61.73
2023-03-13T20:16:49.139Z,61.63
2023-03-13T20:19:17.311Z,61.49
2023-03-13T20:21:46.677Z,61.38
2023-03-13T20:24:16.333Z,61.72
2023-03-13T20:26:44.446Z,61.42
2023-03-13T20:29:12.516Z,62.01
2023-03-13T20:31:40.561Z,61.72
2023-03-13T20:34:08.738Z,62.34
2023-03-13T20:36:36.830Z,62.01
2023-03-13T20:39:05.540Z,62.38
2023-03-13T20:41:34.942Z,62.69
2023-03-13T20:44:03.124Z,62.66
2023-03-13T20:46:31.275Z,62.71
2023-03-13T20:48:59.366Z,62.70
2023-03-13T20:51:28.882Z,62.85
2023-03-13T20:53:57.045Z,62.74
2023-03-13T20:56:25.302Z,63.13
2023-03-13T20:58:54.752Z,62.92
2023-03-13T21:01:24.842Z,63.28
2023-03-13T21:03:53.319Z,63.24
2023-03-13T21:06:21.437Z,63.44
2023-03-13T21:08:49.516Z,63.74
2023-03-13T21:11:19.551Z,64.10
2023-03-13T21:13:48.156Z,63.78
2023-03-13T21:16:18.546Z,64.00
2023-03-13T21:18:46.740Z,64.44
2023-03-13T21:21:17.246Z,64.17
2023-03-13T21:23:45.804Z,64.50
2023-03-13T21:26:14.257Z,64.46
2023-03-13T21:28:42.397Z,64.55
2023-03-13T21:31:12.715Z,64.61
2023-03-13T21:33:42.855Z,65.03
2023-03-13T21:36:11.986Z,65.09
2023-03-13T21:38:40.089Z,65.00
2023-03-13T21:41:09.494Z,65.17
2023-03-13T21:43:37.625Z,65.11
2023-03-13T21:46:06.285Z,65.35
2023-03-13T21:48:34.461Z,65.20
2023-03-13T21:51:03.908Z,65.19
2023-03-13T21:53:32.203Z,65.40
2023-03-13T21:56:00.439Z,65.04
2023-03-13T21:58:28.506Z,65.46
2023-03-13T22:00:57.025Z,65.43
2023-03-13T22:03:26.513Z,65.42
2023-03-13T22:05:55.004Z,65.26
2023-03-13T22:08:24.527Z,65.30
2023-03-13T22:10:54.850Z,65.25
2023-03-13T22:13:23.240Z,65.15
2023-03-13T22:15:52.740Z,64.95
2023-03-13T22:18:20.901Z,65.20
2023-03-13T22:20:49.014Z,65.38
2023-03-13T22:23:17.243Z,65.32
2023-03-13T22:25:48.060Z,65.61
2023-03-13T22:28:16.222Z,65.46
2023-03-13T22:30:44.973Z,65.91
2023-03-13T22:33:13.127Z,65.91
2023-03-13T22:35:42.199Z,65.99
2023-03-13T22:38:10.366Z,66.19
2023-03-13T22:40:38.412Z,66.35
2023-03-13T22:43:07.857Z,66.30
2023-03-13T22:45:36.378Z,66.19
2023-03-13T22:48:06.540Z,65.72
2023-03-13T22:50:35.039Z,65.68
2023-03-13T22:53:03.226Z,65.63
2023-03-13T22:55:32.761Z,65.73
2023-03-13T22:58:00.987Z,65.77
2023-03-13T23:00:30.451Z,65.96
2023-03-13T23:02:58.695Z,65.81
2023-03-13T23:05:26.751Z,65.74
2023-03-13T23:07:54.853Z,65.82
2023-03-13T23:10:22.962Z,65.72
2023-03-13T23:12:51.043Z,65.79
2023-03-13T23:15:19.251Z,65.94
2023-03-13T23:17:48.690Z,65.87
2023-03-13T23:20:16.853Z,65.96
2023-03-13T23:22:46.191Z,66.26
2023-03-13T23:25:14.905Z,66.34
2023-03-13T23:27:43.546Z,66.69
2023-03-13T23:30:14.878Z,66.87
2023-03-13T23:32:44.520Z,66.98
2023-03-13T23:35:16.805Z,67.28
2023-03-13T23:37:48.132Z,67.27
2023-03-13T23:40:16.457Z,67.25
2023-03-13T23:42:47.692Z,67.24
2023-03-13T23:45:15.888Z,67.44
2023-03-13T23:47:44.124Z,67.46
2023-03-13T23:50:14.338Z,67.74
2023-03-13T23:52:42.924Z,67.81
2023-03-13T23:55:11.511Z,68.07
2023-03-13T23:57:39.621Z,68.06
